createdAt,value
2023-04-07T00:00:27.921Z,17.90
2023-04-07T00:03:13.709Z,17.08
2023-04-07T00:05:59.568Z,17.48
2023-04-07T00:08:45.709Z,16.75
2023-04-07T00:11:31.744Z,15.52
2023-04-07T00:14:17.370Z,14.63
2023-04-07T00:17:04.616Z,14.52
2023-04-07T00:19:50.769Z,14.13
2023-04-07T00:22:36.618Z,12.38
2023-04-07T00:25:22.331Z,12.00
2023-04-07T00:28:07.760Z,12.05
2023-04-07T00:30:53.337Z,11.88
2023-04-07T00:33:40.401Z,10.80
2023-04-07T00:36:27.115Z,11.40
2023-04-07T00:39:12.670Z,10.13
2023-04-07T00:41:58.496Z,10.63
2023-04-07T00:44:44.154Z,10.23
2023-04-07T00:47:29.789Z,10.50
2023-04-07T00:50:18.498Z,11.77
2023-04-07T00:53:04.607Z,11.10
2023-04-07T00:55:50.742Z,10.43
2023-04-07T00:58:36.670Z,10.85
2023-04-07T01:01:26.966Z,11.32
2023-04-07T01:04:21.928Z,9.32
2023-04-07T01:07:16.039Z,9.43
2023-04-07T01:10:13.382Z,8.70
2023-04-07T01:13:20.492Z,9.30
2023-04-07T01:16:12.959Z,8.63
2023-04-07T01:19:13.848Z,8.93
2023-04-07T01:22:07.722Z,9.07
2023-04-07T01:25:42.041Z,9.57
2023-04-07T01:28:44.949Z,10.20
2023-04-07T01:31:33.561Z,10.20
2023-04-07T01:34:21.325Z,11.02
2023-04-07T01:37:07.994Z,11.73
2023-04-07T01:39:54.044Z,10.75
2023-04-07T01:42:40.978Z,10.45
2023-04-07T01:45:27.585Z,10.65
2023-04-07T01:48:16.225Z,10.07
2023-04-07T01:51:02.961Z,9.32
2023-04-07T01:53:49.457Z,9.65
2023-04-07T01:56:35.169Z,9.23
2023-04-07T01:59:24.966Z,9.73
2023-04-07T02:02:11.020Z,8.60
2023-04-07T02:05:03.292Z,8.52
2023-04-07T02:07:53.712Z,9.15
2023-04-07T02:10:46.551Z,8.88
2023-04-07T02:13:34.248Z,9.20
2023-04-07T02:16:22.135Z,8.90
2023-04-07T02:19:07.853Z,8.65
2023-04-07T02:21:55.586Z,8.07
2023-04-07T02:24:41.879Z,8.15
2023-04-07T02:27:28.145Z,8.73
2023-04-07T02:30:14.488Z,9.20
2023-04-07T02:33:00.710Z,8.63
2023-04-07T02:35:46.293Z,8.60
2023-04-07T02:38:33.503Z,8.90
2023-04-07T02:41:19.610Z,8.70
2023-04-07T02:44:05.770Z,9.00
2023-04-07T02:46:51.572Z,10.18
2023-04-07T02:49:37.120Z,10.48
2023-04-07T02:52:22.694Z,11.48
2023-04-07T02:55:10.365Z,11.45
2023-04-07T02:57:56.043Z,11.32
2023-04-07T03:00:57.032Z,12.20
2023-04-07T03:03:47.928Z,12.02
2023-04-07T03:06:38.076Z,12.95
2023-04-07T03:09:31.399Z,12.93
2023-04-07T03:12:18.707Z,12.52
2023-04-07T03:15:04.933Z,12.85
2023-04-07T03:17:51.953Z,12.27
2023-04-07T03:20:38.585Z,13.57
2023-04-07T03:23:29.498Z,13.30
2023-04-07T03:26:17.527Z,13.25
2023-04-07T03:29:04.546Z,13.77
2023-04-07T03:31:50.774Z,12.93
2023-04-07T03:34:40.778Z,13.15
2023-04-07T03:37:26.850Z,12.95
2023-04-07T03:40:14.764Z,12.63
2023-04-07T03:43:00.658Z,13.43
2023-04-07T03:45:49.917Z,13.00
2023-04-07T03:48:37.778Z,12.80
2023-04-07T03:51:28.010Z,12.88
2023-04-07T03:54:16.029Z,12.00
2023-04-07T03:57:03.292Z,10.90
2023-04-07T03:59:52.792Z,11.00
2023-04-07T04:02:40.486Z,11.50
2023-04-07T04:05:28.180Z,10.95
2023-04-07T04:08:14.239Z,10.25
2023-04-07T04:11:00.581Z,10.55
2023-04-07T04:13:53.286Z,10.50
2023-04-07T04:16:39.891Z,10.43
2023-04-07T04:19:39.372Z,10.32
2023-04-07T04:22:33.559Z,10.50
2023-04-07T04:25:20.646Z,9.98
2023-04-07T04:28:10.643Z,11.23
2023-04-07T04:30:56.583Z,10.70
2023-04-07T04:33:42.655Z,10.07
2023-04-07T04:36:29.611Z,10.00
2023-04-07T04:39:20.076Z,9.40
2023-04-07T04:42:06.535Z,9.90
2023-04-07T04:44:54.688Z,8.60
2023-04-07T04:47:41.555Z,9.18
2023-04-07T04:50:27.626Z,9.30
2023-04-07T04:53:16.346Z,9.27
2023-04-07T04:56:08.541Z,10.20
2023-04-07T04:59:04.810Z,9.75
2023-04-07T05:02:02.804Z,9.27
2023-04-07T05:04:49.482Z,8.60
2023-04-07T05:07:40.569Z,9.38
2023-04-07T05:10:30.134Z,8.82
2023-04-07T05:13:16.015Z,9.00
2023-04-07T05:16:02.246Z,9.48
2023-04-07T05:18:49.137Z,10.27
2023-04-07T05:21:35.937Z,9.25
2023-04-07T05:24:23.449Z,9.18
2023-04-07T05:27:15.467Z,9.67
2023-04-07T05:30:04.588Z,9.68
2023-04-07T05:32:53.520Z,8.75
2023-04-07T05:35:55.067Z,9.25
2023-04-07T05:38:41.583Z,10.18
2023-04-07T05:44:20.321Z,13.07
2023-04-07T05:47:08.964Z,13.20
2023-04-07T05:49:56.091Z,11.27
2023-04-07T05:52:41.803Z,10.23
2023-04-07T05:55:37.875Z,10.43
2023-04-07T05:58:28.117Z,10.65
2023-04-07T06:01:16.844Z,10.75
2023-04-07T06:04:03.478Z,10.40
2023-04-07T06:06:49.466Z,9.95
2023-04-07T06:09:37.290Z,9.80
2023-04-07T06:12:23.233Z,10.07
2023-04-07T06:15:09.795Z,9.80
2023-04-07T06:17:58.063Z,9.43
2023-04-07T06:20:43.974Z,9.45
2023-04-07T06:23:29.667Z,8.90
2023-04-07T06:26:16.320Z,9.32
2023-04-07T06:29:01.982Z,8.55
2023-04-07T06:31:47.872Z,8.40
2023-04-07T06:34:35.206Z,7.70
2023-04-07T06:37:21.064Z,8.40
2023-04-07T06:40:07.929Z,8.55
2023-04-07T06:42:54.666Z,7.90
2023-04-07T06:45:48.834Z,8.73
2023-04-07T06:48:34.478Z,8.48
2023-04-07T06:51:21.457Z,8.57
2023-04-07T06:54:12.785Z,8.70
2023-04-07T06:56:58.756Z,8.95
2023-04-07T06:59:44.264Z,7.68
2023-04-07T07:02:30.653Z,7.70
2023-04-07T07:05:16.625Z,8.18
2023-04-07T07:08:04.089Z,7.68
2023-04-07T07:10:49.695Z,9.10
2023-04-07T07:13:36.067Z,8.50
2023-04-07T07:16:24.044Z,9.98
2023-04-07T07:19:09.867Z,9.63
2023-04-07T07:21:55.786Z,10.45
2023-04-07T07:24:43.006Z,10.02
2023-04-07T07:27:28.582Z,11.30
2023-04-07T07:30:14.473Z,11.30
2023-04-07T07:33:02.970Z,11.15
2023-04-07T07:35:49.122Z,8.82
2023-04-07T07:38:36.095Z,8.38
2023-04-07T07:41:24.333Z,8.60
2023-04-07T07:44:09.815Z,7.82
2023-04-07T07:46:55.449Z,7.30
2023-04-07T07:49:42.111Z,7.57
2023-04-07T07:52:28.029Z,7.72
2023-04-07T07:55:13.832Z,7.90
2023-04-07T07:58:00.915Z,8.68
2023-04-07T08:00:46.897Z,9.55
2023-04-07T08:03:32.506Z,7.32
2023-04-07T08:06:18.588Z,7.70
2023-04-07T08:09:06.178Z,6.55
2023-04-07T08:11:52.385Z,6.10
2023-04-07T08:14:39.661Z,6.13
2023-04-07T08:17:25.829Z,5.80
2023-04-07T08:20:12.023Z,5.80
2023-04-07T08:22:57.713Z,5.05
2023-04-07T08:25:43.558Z,5.10
2023-04-07T08:28:29.227Z,5.10
2023-04-07T08:31:16.437Z,4.97
2023-04-07T08:34:02.380Z,4.80
2023-04-07T08:36:48.568Z,4.93
2023-04-07T08:39:34.118Z,4.65
2023-04-07T08:42:22.092Z,4.47
2023-04-07T08:45:09.991Z,4.32
2023-04-07T08:48:04.781Z,4.53
2023-04-07T08:50:52.980Z,4.80
2023-04-07T08:53:43.596Z,4.82
2023-04-07T08:56:29.619Z,4.30
2023-04-07T08:59:18.664Z,6.25
2023-04-07T09:02:05.758Z,6.50
2023-04-07T09:04:52.612Z,4.95
2023-04-07T09:07:40.346Z,3.95
2023-04-07T09:10:26.333Z,3.60
2023-04-07T09:13:12.300Z,3.00
2023-04-07T09:15:57.770Z,3.50
2023-04-07T09:18:44.085Z,3.33
2023-04-07T09:21:48.564Z,3.25
2023-04-07T09:24:34.478Z,3.65
2023-04-07T09:27:20.257Z,3.47
2023-04-07T09:30:14.623Z,3.50
2023-04-07T09:33:01.504Z,3.33
2023-04-07T09:35:53.365Z,3.20
2023-04-07T09:38:41.916Z,3.22
2023-04-07T09:41:28.242Z,3.08
2023-04-07T09:44:13.928Z,3.80
2023-04-07T09:46:59.732Z,3.28
2023-04-07T09:49:53.554Z,3.83
2023-04-07T09:52:52.532Z,4.47
2023-04-07T09:55:44.012Z,4.45
2023-04-07T09:58:29.864Z,3.50
2023-04-07T10:01:19.512Z,4.30
2023-04-07T10:04:05.727Z,4.45
2023-04-07T10:06:52.873Z,4.88
2023-04-07T10:09:38.541Z,4.60
2023-04-07T10:12:27.098Z,6.00
2023-04-07T10:15:15.871Z,5.25
2023-04-07T10:18:06.439Z,4.18
2023-04-07T10:20:54.986Z,4.50
2023-04-07T10:23:51.584Z,3.35
2023-04-07T10:26:41.778Z,2.85
2023-04-07T10:29:31.724Z,3.80
2023-04-07T10:32:17.979Z,3.30
2023-04-07T10:35:07.099Z,3.85
2023-04-07T10:38:16.661Z,3.33
2023-04-07T10:41:35.528Z,3.00
2023-04-07T10:47:26.553Z,2.95
2023-04-07T10:50:20.241Z,3.63
2023-04-07T10:53:08.532Z,3.63
2023-04-07T10:55:57.044Z,3.83
2023-04-07T10:58:42.980Z,3.75
2023-04-07T11:01:29.112Z,3.22
2023-04-07T11:04:16.924Z,2.70
2023-04-07T11:07:02.916Z,2.63
2023-04-07T11:09:48.867Z,2.10
2023-04-07T11:12:34.445Z,2.47
2023-04-07T11:15:22.396Z,2.67
2023-04-07T11:18:26.362Z,2.00
2023-04-07T11:21:18.564Z,1.92
2023-04-07T11:24:04.758Z,1.77
2023-04-07T11:26:51.556Z,2.28
2023-04-07T11:29:37.426Z,3.35
2023-04-07T11:32:29.630Z,3.78
2023-04-07T11:35:16.474Z,3.35
2023-04-07T11:38:03.764Z,2.97
2023-04-07T11:40:49.974Z,3.33
2023-04-07T11:43:37.765Z,3.30
2023-04-07T11:46:23.902Z,3.35
2023-04-07T11:49:11.507Z,3.67
2023-04-07T11:52:02.990Z,3.60
2023-04-07T11:54:51.151Z,3.10
2023-04-07T11:57:37.304Z,3.17
2023-04-07T12:00:23.498Z,3.22
2023-04-07T12:03:16.210Z,5.03
2023-04-07T12:06:02.940Z,3.88
2023-04-07T12:08:48.652Z,3.70
2023-04-07T12:11:37.313Z,3.85
2023-04-07T12:14:23.503Z,4.20
2023-04-07T12:17:20.937Z,4.00
2023-04-07T12:20:07.849Z,4.63
2023-04-07T12:22:54.063Z,4.28
2023-04-07T12:25:39.623Z,3.60
2023-04-07T12:28:30.057Z,4.65
2023-04-07T12:31:16.225Z,3.97
2023-04-07T12:34:01.980Z,3.95
2023-04-07T12:36:48.355Z,3.90
2023-04-07T12:39:33.848Z,3.92
2023-04-07T12:42:19.353Z,3.70
2023-04-07T12:45:11.579Z,3.83
2023-04-07T12:47:57.796Z,4.93
2023-04-07T12:50:43.448Z,4.28
2023-04-07T12:53:28.994Z,4.88
2023-04-07T12:56:14.760Z,4.22
2023-04-07T12:59:00.678Z,4.60
2023-04-07T13:01:50.247Z,4.40
2023-04-07T13:04:40.744Z,4.60
2023-04-07T13:07:27.050Z,4.30
2023-04-07T13:10:12.819Z,4.50
2023-04-07T13:12:58.830Z,4.78
2023-04-07T13:15:44.403Z,4.97
2023-04-07T13:18:31.328Z,4.55
2023-04-07T13:21:38.295Z,4.00
2023-04-07T13:24:22.754Z,4.30
2023-04-07T13:27:08.932Z,5.00
2023-04-07T13:29:54.561Z,4.20
2023-04-07T13:32:40.380Z,3.53
2023-04-07T13:35:27.678Z,3.58
2023-04-07T13:38:13.360Z,3.38
2023-04-07T13:40:59.148Z,4.15
2023-04-07T13:43:45.818Z,4.75
2023-04-07T13:46:31.946Z,3.58
2023-04-07T13:49:17.571Z,3.30
2023-04-07T13:52:04.707Z,3.35
2023-04-07T13:54:50.989Z,3.10
2023-04-07T13:57:36.511Z,3.65
2023-04-07T14:00:22.070Z,3.15
2023-04-07T14:03:08.153Z,3.35
2023-04-07T14:05:54.339Z,3.15
2023-04-07T14:08:41.475Z,3.80
2023-04-07T14:11:27.790Z,3.80
2023-04-07T14:14:13.605Z,3.78
2023-04-07T14:17:00.079Z,3.05
2023-04-07T14:19:46.519Z,3.20
2023-04-07T14:22:35.529Z,3.40
2023-04-07T14:25:22.381Z,3.60
2023-04-07T14:28:08.208Z,3.42
2023-04-07T14:30:54.592Z,2.92
2023-04-07T14:33:41.028Z,2.95
2023-04-07T14:36:27.352Z,2.97
2023-04-07T14:39:13.560Z,3.25
2023-04-07T14:42:00.855Z,3.72
2023-04-07T14:44:46.678Z,3.65
2023-04-07T14:47:32.402Z,3.88
2023-04-07T14:50:18.582Z,3.75
2023-04-07T14:53:04.717Z,4.10
2023-04-07T14:55:50.622Z,3.80
2023-04-07T14:58:39.150Z,4.43
2023-04-07T15:01:24.497Z,4.95
2023-04-07T15:04:10.763Z,4.93
2023-04-07T15:06:56.728Z,5.22
2023-04-07T15:09:42.472Z,5.38
2023-04-07T15:12:29.819Z,4.10
2023-04-07T15:15:17.422Z,4.25
2023-04-07T15:18:04.118Z,4.68
2023-04-07T15:20:50.032Z,4.80
2023-04-07T15:23:37.748Z,4.53
2023-04-07T15:26:23.713Z,3.75
2023-04-07T15:29:09.271Z,4.20
2023-04-07T15:31:56.741Z,4.38
2023-04-07T15:34:42.995Z,4.63
2023-04-07T15:37:28.596Z,4.47
2023-04-07T15:40:14.100Z,4.65
2023-04-07T15:43:00.886Z,5.30
2023-04-07T15:45:47.969Z,5.20
2023-04-07T15:48:37.481Z,6.93
2023-04-07T15:51:23.912Z,6.75
2023-04-07T15:54:09.961Z,7.45
2023-04-07T15:56:55.354Z,7.85
2023-04-07T15:59:40.925Z,6.20
2023-04-07T16:02:26.739Z,5.65
2023-04-07T16:05:14.464Z,5.00
2023-04-07T16:08:00.602Z,5.60
2023-04-07T16:10:46.138Z,5.60
2023-04-07T16:13:31.699Z,6.60
2023-04-07T16:16:19.144Z,6.35
2023-04-07T16:19:04.951Z,6.57
2023-04-07T16:21:52.631Z,6.85
2023-04-07T16:24:38.742Z,12.93
2023-04-07T16:27:24.122Z,10.98
2023-04-07T16:30:11.046Z,9.30
2023-04-07T16:32:56.593Z,8.20
2023-04-07T16:35:42.532Z,6.90
2023-04-07T16:38:30.013Z,6.68
2023-04-07T16:41:15.809Z,6.70
2023-04-07T16:44:01.264Z,6.97
2023-04-07T16:46:46.985Z,9.57
2023-04-07T16:49:32.499Z,8.02
2023-04-07T16:52:20.559Z,6.90
2023-04-07T16:55:09.132Z,7.25
2023-04-07T16:57:55.226Z,6.95
2023-04-07T17:00:40.872Z,7.68
2023-04-07T17:03:26.642Z,7.75
2023-04-07T17:06:12.517Z,7.50
2023-04-07T17:08:58.127Z,7.85
2023-04-07T17:11:45.841Z,8.45
2023-04-07T17:14:31.978Z,7.50
2023-04-07T17:17:17.879Z,7.68
2023-04-07T17:20:07.247Z,14.52
2023-04-07T17:22:52.900Z,10.57
2023-04-07T17:25:38.377Z,8.98
2023-04-07T17:28:27.685Z,7.20
2023-04-07T17:31:14.421Z,7.63
2023-04-07T17:34:00.734Z,6.53
2023-04-07T17:36:46.378Z,7.13
2023-04-07T17:39:32.538Z,6.80
2023-04-07T17:42:18.081Z,7.28
2023-04-07T17:45:08.339Z,7.30
2023-04-07T17:47:54.942Z,9.10
2023-04-07T17:50:40.958Z,8.23
2023-04-07T17:53:26.961Z,8.15
2023-04-07T17:56:12.812Z,7.63
2023-04-07T17:58:58.735Z,7.63
2023-04-07T18:01:46.552Z,7.68
2023-04-07T18:04:32.285Z,11.48
2023-04-07T18:07:37.685Z,11.68
2023-04-07T18:10:24.036Z,9.10
2023-04-07T18:13:10.087Z,9.70
2023-04-07T18:15:55.615Z,10.27
2023-04-07T18:18:43.393Z,12.65
2023-04-07T18:21:29.739Z,12.95
2023-04-07T18:24:15.542Z,11.30
2023-04-07T18:27:03.196Z,12.10
2023-04-07T18:29:49.058Z,12.38
2023-04-07T18:32:35.060Z,12.02
2023-04-07T18:35:22.791Z,13.73
2023-04-07T18:38:08.791Z,12.70
2023-04-07T18:40:54.436Z,12.80
2023-04-07T18:43:40.258Z,11.15
2023-04-07T18:46:26.024Z,11.77
2023-04-07T18:49:11.964Z,11.27
2023-04-07T18:51:58.961Z,11.95
2023-04-07T18:54:44.787Z,11.40
2023-04-07T18:57:30.707Z,12.63
2023-04-07T19:00:17.091Z,15.13
2023-04-07T19:03:03.097Z,14.13
2023-04-07T19:05:52.283Z,14.18
2023-04-07T19:08:39.988Z,16.30
2023-04-07T19:11:29.005Z,17.65
2023-04-07T19:14:14.964Z,18.80
2023-04-07T19:17:01.401Z,18.77
2023-04-07T19:19:47.324Z,18.92
2023-04-07T19:22:32.982Z,19.10
2023-04-07T19:25:20.425Z,20.45
2023-04-07T19:28:06.198Z,20.50
2023-04-07T19:30:52.098Z,19.77
2023-04-07T19:33:38.270Z,19.40
2023-04-07T19:36:24.574Z,19.30
2023-04-07T19:39:10.735Z,19.83
2023-04-07T19:41:58.553Z,19.60
2023-04-07T19:44:44.453Z,20.48
2023-04-07T19:47:30.620Z,19.70
2023-04-07T19:50:16.678Z,20.02
2023-04-07T19:53:02.831Z,19.52
2023-04-07T19:55:49.279Z,19.80
2023-04-07T19:58:38.870Z,20.83
2023-04-07T20:01:24.788Z,21.27
2023-04-07T20:04:10.668Z,21.88
2023-04-07T20:06:56.981Z,22.17
2023-04-07T20:09:42.750Z,21.50
2023-04-07T20:12:28.415Z,22.70
2023-04-07T20:15:15.574Z,22.30
2023-04-07T20:18:01.590Z,23.23
2023-04-07T20:20:47.403Z,22.75
2023-04-07T20:23:34.018Z,21.75
2023-04-07T20:26:22.062Z,24.05
2023-04-07T20:29:08.577Z,22.98
2023-04-07T20:31:55.724Z,23.30
2023-04-07T20:34:43.000Z,23.63
2023-04-07T20:37:28.660Z,23.52
2023-04-07T20:40:14.662Z,23.55
2023-04-07T20:43:00.236Z,23.55
2023-04-07T20:45:47.597Z,22.15
2023-04-07T20:48:35.029Z,23.23
2023-04-07T20:51:20.980Z,22.65
2023-04-07T20:54:08.136Z,23.38
2023-04-07T20:56:53.930Z,23.73
2023-04-07T20:59:39.472Z,22.90
2023-04-07T21:02:25.382Z,24.20
2023-04-07T21:05:13.087Z,23.70
2023-04-07T21:07:59.248Z,24.90
2023-04-07T21:10:45.488Z,23.80
2023-04-07T21:13:31.508Z,23.45
2023-04-07T21:16:17.561Z,24.67
2023-04-07T21:19:03.522Z,24.85
2023-04-07T21:21:51.104Z,24.17
2023-04-07T21:24:37.068Z,23.83
2023-04-07T21:27:22.779Z,24.92
2023-04-07T21:30:09.435Z,24.52
2023-04-07T21:32:55.495Z,24.27
2023-04-07T21:35:41.366Z,23.38
2023-04-07T21:38:28.398Z,24.05
2023-04-07T21:41:14.047Z,23.70
2023-04-07T21:44:01.303Z,24.58
2023-04-07T21:46:47.516Z,23.77
2023-04-07T21:49:33.514Z,24.55
2023-04-07T21:52:19.793Z,26.13
2023-04-07T21:55:08.569Z,26.30
2023-04-07T21:57:54.428Z,25.05
2023-04-07T22:00:40.484Z,24.40
2023-04-07T22:03:26.303Z,25.23
2023-04-07T22:06:12.350Z,24.38
2023-04-07T22:09:01.883Z,24.77
2023-04-07T22:11:49.496Z,23.58
2023-04-07T22:14:35.617Z,23.83
2023-04-07T22:17:21.220Z,24.33
2023-04-07T22:20:08.541Z,23.63
2023-04-07T22:22:57.453Z,23.92
2023-04-07T22:25:43.344Z,25.48
2023-04-07T22:28:30.347Z,24.08
2023-04-07T22:31:16.217Z,24.88
2023-04-07T22:34:01.855Z,24.65
2023-04-07T22:36:47.545Z,24.40
2023-04-07T22:39:35.532Z,25.35
2023-04-07T22:42:21.093Z,26.27
2023-04-07T22:45:09.532Z,24.77
2023-04-07T22:47:55.614Z,25.00
2023-04-07T22:50:41.373Z,24.15
2023-04-07T22:53:26.963Z,24.05
2023-04-07T22:56:12.962Z,24.33
2023-04-07T22:59:05.364Z,24.55
2023-04-07T23:01:52.678Z,24.30
2023-04-07T23:04:38.560Z,24.33
2023-04-07T23:07:24.072Z,25.33
2023-04-07T23:10:09.894Z,25.15
2023-04-07T23:12:55.898Z,25.70
2023-04-07T23:15:41.821Z,25.40
2023-04-07T23:18:29.160Z,24.75
2023-04-07T23:21:14.657Z,23.77
2023-04-07T23:24:00.590Z,25.25
2023-04-07T23:26:46.371Z,24.75
2023-04-07T23:29:32.819Z,23.98
2023-04-07T23:32:18.578Z,26.38
2023-04-07T23:35:07.062Z,24.15
2023-04-07T23:37:52.832Z,23.73
2023-04-07T23:40:38.396Z,23.65
2023-04-07T23:43:24.202Z,22.23
2023-04-07T23:46:10.101Z,20.33
2023-04-07T23:48:55.617Z,21.45
2023-04-07T23:51:43.755Z,22.83
2023-04-07T23:54:29.308Z,23.08
2023-04-07T23:57:14.931Z,23.42
